createdAt,value
2023-01-26T00:01:56.575Z,8.38
2023-01-26T00:04:25.439Z,12.13
2023-01-26T00:06:55.901Z,11.45
2023-01-26T00:09:24.625Z,10.60
2023-01-26T00:11:53.448Z,8.50
2023-01-26T00:14:22.064Z,9.80
2023-01-26T00:16:50.434Z,9.75
2023-01-26T00:19:18.741Z,9.63
2023-01-26T00:21:46.897Z,8.80
2023-01-26T00:24:16.955Z,9.20
2023-01-26T00:26:45.553Z,10.75
2023-01-26T00:29:14.194Z,8.13
2023-01-26T00:31:42.686Z,8.02
2023-01-26T00:34:11.272Z,8.00
2023-01-26T00:36:39.978Z,8.10
2023-01-26T00:39:08.664Z,9.15
2023-01-26T00:41:57.457Z,13.57
2023-01-26T00:44:25.847Z,13.52
2023-01-26T00:46:54.390Z,12.70
2023-01-26T00:49:23.056Z,13.18
2023-01-26T00:51:51.617Z,14.20
2023-01-26T00:54:19.996Z,13.75
2023-01-26T00:56:50.155Z,12.40
2023-01-26T00:59:18.912Z,11.75
2023-01-26T01:01:47.689Z,11.65
2023-01-26T01:04:16.467Z,13.05
2023-01-26T01:06:44.996Z,14.27
2023-01-26T01:09:13.858Z,13.30
2023-01-26T01:11:43.829Z,14.30
2023-01-26T01:14:14.302Z,13.20
2023-01-26T01:16:42.630Z,13.18
2023-01-26T01:19:14.050Z,14.15
2023-01-26T01:21:42.686Z,12.82
2023-01-26T01:24:12.954Z,10.60
2023-01-26T01:26:41.435Z,12.05
2023-01-26T01:29:13.444Z,13.35
2023-01-26T01:31:44.200Z,11.73
2023-01-26T01:34:12.745Z,14.05
2023-01-26T01:36:41.363Z,13.88
2023-01-26T01:39:10.082Z,13.50
2023-01-26T01:41:38.669Z,11.98
2023-01-26T01:44:18.873Z,10.32
2023-01-26T01:46:51.124Z,12.35
2023-01-26T01:49:24.166Z,12.05
2023-01-26T01:51:55.602Z,13.27
2023-01-26T01:54:27.793Z,13.80
2023-01-26T01:56:58.171Z,11.85
2023-01-26T01:59:26.896Z,12.65
2023-01-26T02:01:57.270Z,15.70
2023-01-26T02:04:27.360Z,13.05
2023-01-26T02:06:57.597Z,15.43
2023-01-26T02:09:46.388Z,12.55
2023-01-26T02:12:15.921Z,11.40
2023-01-26T02:14:44.495Z,12.07
2023-01-26T02:17:14.809Z,11.82
2023-01-26T02:19:48.086Z,11.35
2023-01-26T02:22:23.448Z,11.13
2023-01-26T02:24:54.754Z,11.32
2023-01-26T02:27:25.051Z,11.43
2023-01-26T02:29:57.073Z,12.05
2023-01-26T02:32:25.691Z,10.93
2023-01-26T02:34:57.292Z,10.07
2023-01-26T02:37:25.998Z,9.40
2023-01-26T02:40:00.402Z,12.68
2023-01-26T02:42:38.947Z,9.75
2023-01-26T02:45:08.017Z,12.40
2023-01-26T02:47:36.805Z,9.48
2023-01-26T02:50:05.983Z,10.45
2023-01-26T02:52:35.832Z,12.20
2023-01-26T02:55:21.566Z,13.00
2023-01-26T02:57:52.274Z,12.30
2023-01-26T03:00:22.576Z,12.20
2023-01-26T03:02:51.658Z,11.50
2023-01-26T03:05:20.028Z,11.98
2023-01-26T03:07:48.808Z,12.15
2023-01-26T03:10:18.466Z,11.68
2023-01-26T03:12:47.143Z,12.30
2023-01-26T03:15:34.371Z,10.90
2023-01-26T03:18:36.187Z,12.40
2023-01-26T03:21:22.935Z,17.45
2023-01-26T03:24:09.091Z,13.45
2023-01-26T03:26:55.111Z,13.85
2023-01-26T03:29:23.776Z,13.13
2023-01-26T03:31:53.728Z,11.05
2023-01-26T03:34:22.135Z,14.02
2023-01-26T03:36:50.637Z,13.70
2023-01-26T03:39:32.757Z,13.02
2023-01-26T03:42:19.447Z,12.75
2023-01-26T03:45:05.335Z,11.75
2023-01-26T03:47:52.614Z,12.20
2023-01-26T03:50:40.771Z,12.82
2023-01-26T03:53:33.550Z,13.13
2023-01-26T03:56:18.473Z,9.82
2023-01-26T03:58:47.047Z,11.55
2023-01-26T04:01:21.787Z,10.90
2023-01-26T04:04:09.529Z,12.25
2023-01-26T04:06:55.858Z,12.43
2023-01-26T04:09:25.215Z,12.25
2023-01-26T04:11:53.889Z,13.45
2023-01-26T04:14:49.431Z,14.90
2023-01-26T04:17:36.191Z,13.40
2023-01-26T04:20:24.762Z,12.10
2023-01-26T04:22:53.591Z,12.25
2023-01-26T04:25:23.252Z,12.27
2023-01-26T04:27:51.691Z,11.48
2023-01-26T04:30:21.548Z,10.82
2023-01-26T04:32:49.969Z,12.35
2023-01-26T04:35:20.347Z,14.13
2023-01-26T04:37:49.632Z,12.38
2023-01-26T04:40:19.523Z,9.88
2023-01-26T04:42:48.025Z,12.63
2023-01-26T04:45:16.787Z,12.98
2023-01-26T04:47:45.587Z,10.18
2023-01-26T04:50:14.692Z,11.68
2023-01-26T04:52:44.849Z,13.32
2023-01-26T04:55:14.168Z,11.10
2023-01-26T04:57:42.806Z,12.15
2023-01-26T05:00:14.348Z,11.45
2023-01-26T05:02:43.245Z,13.45
2023-01-26T05:05:12.186Z,14.43
2023-01-26T05:07:40.807Z,16.02
2023-01-26T05:10:15.503Z,15.15
2023-01-26T05:12:44.451Z,11.40
2023-01-26T05:15:13.108Z,12.38
2023-01-26T05:17:41.767Z,11.82
2023-01-26T05:20:11.925Z,10.88
2023-01-26T05:22:41.784Z,11.77
2023-01-26T05:25:11.816Z,12.05
2023-01-26T05:27:40.440Z,12.75
2023-01-26T05:30:14.734Z,13.18
2023-01-26T05:32:44.048Z,11.48
2023-01-26T05:35:12.718Z,9.63
2023-01-26T05:37:43.005Z,11.52
2023-01-26T05:40:18.961Z,10.60
2023-01-26T05:42:47.631Z,10.15
2023-01-26T05:45:16.569Z,11.20
2023-01-26T05:47:45.185Z,11.13
2023-01-26T05:50:14.942Z,13.05
2023-01-26T05:52:46.589Z,10.57
2023-01-26T05:55:14.978Z,10.55
2023-01-26T05:57:46.019Z,8.57
2023-01-26T06:00:17.425Z,9.20
2023-01-26T06:02:48.472Z,11.77
2023-01-26T06:05:17.001Z,9.35
2023-01-26T06:07:45.700Z,9.07
2023-01-26T06:10:15.811Z,11.27
2023-01-26T06:12:48.362Z,10.85
2023-01-26T06:15:16.951Z,9.25
2023-01-26T06:17:45.425Z,10.90
2023-01-26T06:20:14.840Z,12.40
2023-01-26T06:22:46.271Z,9.68
2023-01-26T06:25:14.560Z,9.60
2023-01-26T06:27:43.345Z,10.80
2023-01-26T06:30:16.007Z,10.88
2023-01-26T06:32:48.739Z,11.45
2023-01-26T06:35:17.529Z,10.13
2023-01-26T06:37:46.681Z,10.75
2023-01-26T06:40:16.703Z,10.32
2023-01-26T06:42:48.871Z,10.10
2023-01-26T06:45:20.784Z,10.18
2023-01-26T06:47:49.558Z,10.07
2023-01-26T06:50:19.607Z,9.95
2023-01-26T06:52:49.771Z,10.93
2023-01-26T06:55:20.513Z,10.15
2023-01-26T06:57:49.179Z,13.25
2023-01-26T07:00:21.113Z,11.35
2023-01-26T07:02:50.155Z,11.48
2023-01-26T07:05:18.752Z,10.48
2023-01-26T07:07:48.053Z,11.50
2023-01-26T07:10:17.334Z,10.02
2023-01-26T07:12:47.999Z,10.07
2023-01-26T07:15:16.799Z,9.73
2023-01-26T07:17:46.860Z,10.23
2023-01-26T07:20:15.683Z,10.00
2023-01-26T07:22:46.093Z,10.73
2023-01-26T07:25:14.469Z,9.80
2023-01-26T07:27:43.203Z,9.88
2023-01-26T07:30:14.346Z,12.85
2023-01-26T07:32:44.120Z,12.32
2023-01-26T07:35:14.552Z,12.13
2023-01-26T07:37:42.758Z,9.60
2023-01-26T07:40:13.029Z,9.82
2023-01-26T07:42:43.321Z,10.00
2023-01-26T07:45:12.331Z,11.27
2023-01-26T07:47:40.977Z,12.00
2023-01-26T07:50:15.392Z,11.18
2023-01-26T07:52:45.839Z,10.57
2023-01-26T07:55:23.019Z,11.73
2023-01-26T07:57:51.958Z,11.73
2023-01-26T08:00:21.026Z,11.07
2023-01-26T08:02:51.552Z,10.73
2023-01-26T08:05:22.418Z,11.20
2023-01-26T08:07:53.251Z,12.20
2023-01-26T08:10:21.743Z,13.07
2023-01-26T08:12:56.126Z,13.13
2023-01-26T08:15:27.346Z,11.35
2023-01-26T08:17:59.235Z,12.82
2023-01-26T08:20:29.755Z,13.15
2023-01-26T08:23:00.897Z,11.73
2023-01-26T08:25:29.622Z,10.52
2023-01-26T08:27:59.972Z,11.55
2023-01-26T08:30:28.967Z,11.80
2023-01-26T08:32:58.041Z,11.23
2023-01-26T08:35:29.143Z,12.15
2023-01-26T08:38:00.782Z,11.32
2023-01-26T08:40:30.136Z,12.68
2023-01-26T08:43:02.477Z,11.57
2023-01-26T08:45:34.741Z,11.13
2023-01-26T08:48:04.935Z,11.65
2023-01-26T08:50:33.682Z,11.40
2023-01-26T08:53:03.964Z,13.98
2023-01-26T08:55:36.135Z,18.33
2023-01-26T08:58:04.376Z,16.00
2023-01-26T09:00:33.619Z,15.50
2023-01-26T09:03:03.106Z,17.40
2023-01-26T09:05:34.623Z,16.73
2023-01-26T09:08:05.939Z,13.77
2023-01-26T09:10:39.859Z,11.52
2023-01-26T09:13:09.109Z,13.82
2023-01-26T09:15:39.437Z,13.07
2023-01-26T09:18:08.601Z,13.65
2023-01-26T09:20:39.081Z,13.48
2023-01-26T09:23:09.180Z,13.63
2023-01-26T09:25:43.297Z,16.05
2023-01-26T09:28:12.946Z,15.10
2023-01-26T09:30:41.652Z,14.98
2023-01-26T09:33:13.307Z,12.85
2023-01-26T09:35:46.231Z,13.65
2023-01-26T09:38:19.312Z,15.45
2023-01-26T09:41:02.567Z,12.73
2023-01-26T09:43:36.130Z,13.27
2023-01-26T09:46:10.939Z,14.57
2023-01-26T09:48:43.446Z,14.93
2023-01-26T09:51:13.833Z,15.48
2023-01-26T09:53:46.833Z,14.85
2023-01-26T09:56:18.737Z,15.63
2023-01-26T09:58:54.304Z,16.80
2023-01-26T10:01:27.239Z,15.20
2023-01-26T10:04:01.948Z,14.25
2023-01-26T10:06:32.511Z,16.10
2023-01-26T10:09:03.975Z,15.98
2023-01-26T10:11:40.751Z,17.08
2023-01-26T10:14:15.346Z,17.50
2023-01-26T10:16:48.721Z,20.02
2023-01-26T10:19:22.071Z,17.45
2023-01-26T10:21:52.470Z,15.70
2023-01-26T10:24:23.999Z,20.80
2023-01-26T10:26:54.503Z,18.63
2023-01-26T10:29:23.160Z,17.20
2023-01-26T10:31:52.325Z,16.88
2023-01-26T10:34:24.616Z,19.35
2023-01-26T10:36:55.958Z,19.90
2023-01-26T10:39:26.278Z,17.33
2023-01-26T10:41:59.164Z,16.38
2023-01-26T10:44:33.253Z,19.27
2023-01-26T10:47:09.342Z,18.52
2023-01-26T10:49:38.620Z,19.70
2023-01-26T10:52:10.986Z,19.13
2023-01-26T10:54:44.772Z,18.00
2023-01-26T10:57:18.680Z,17.65
2023-01-26T10:59:52.727Z,19.52
2023-01-26T11:02:36.806Z,18.83
2023-01-26T11:05:24.127Z,16.70
2023-01-26T11:07:55.800Z,16.95
2023-01-26T11:10:35.862Z,16.38
2023-01-26T11:13:12.752Z,15.15
2023-01-26T11:15:42.870Z,17.42
2023-01-26T11:18:22.609Z,19.05
2023-01-26T11:20:55.496Z,18.20
2023-01-26T11:23:37.676Z,15.50
2023-01-26T11:26:21.724Z,15.93
2023-01-26T11:28:59.100Z,16.15
2023-01-26T11:31:42.557Z,15.07
2023-01-26T11:34:29.650Z,13.93
2023-01-26T11:37:06.404Z,17.95
2023-01-26T11:39:41.090Z,16.17
2023-01-26T11:42:15.506Z,15.85
2023-01-26T11:44:55.983Z,15.38
2023-01-26T11:47:29.819Z,15.05
2023-01-26T11:50:05.984Z,16.52
2023-01-26T11:52:38.349Z,15.38
2023-01-26T11:55:15.335Z,16.83
2023-01-26T11:57:48.829Z,14.68
2023-01-26T12:00:30.127Z,14.98
2023-01-26T12:03:03.559Z,16.75
2023-01-26T12:05:35.017Z,15.60
2023-01-26T12:08:06.000Z,15.30
2023-01-26T12:10:38.503Z,14.65
2023-01-26T12:13:09.189Z,16.20
2023-01-26T12:15:42.762Z,14.75
2023-01-26T12:18:15.589Z,13.85
2023-01-26T12:20:46.155Z,13.90
2023-01-26T12:23:18.706Z,12.65
2023-01-26T12:25:49.477Z,14.57
2023-01-26T12:28:20.167Z,16.90
2023-01-26T12:30:53.139Z,14.48
2023-01-26T12:33:21.496Z,15.18
2023-01-26T12:35:59.806Z,15.60
2023-01-26T12:38:33.525Z,13.20
2023-01-26T12:41:07.259Z,15.95
2023-01-26T12:43:40.045Z,17.55
2023-01-26T12:46:10.589Z,15.80
2023-01-26T12:48:42.248Z,15.38
2023-01-26T12:51:12.829Z,18.23
2023-01-26T12:53:45.483Z,15.57
2023-01-26T12:56:17.764Z,16.02
2023-01-26T12:58:47.522Z,16.20
2023-01-26T13:01:19.612Z,16.63
2023-01-26T13:03:53.845Z,19.58
2023-01-26T13:06:24.801Z,16.48
2023-01-26T13:09:01.286Z,15.13
2023-01-26T13:11:43.017Z,14.00
2023-01-26T13:14:27.495Z,16.42
2023-01-26T13:16:57.851Z,16.13
2023-01-26T13:19:51.712Z,15.25
2023-01-26T13:22:47.950Z,15.80
2023-01-26T13:25:18.632Z,13.07
2023-01-26T13:27:47.757Z,16.48
2023-01-26T13:30:30.533Z,16.90
2023-01-26T13:33:15.255Z,15.95
2023-01-26T13:35:43.810Z,17.35
2023-01-26T13:38:22.397Z,15.57
2023-01-26T13:40:51.210Z,15.82
2023-01-26T13:43:27.179Z,15.70
2023-01-26T13:46:11.066Z,16.55
2023-01-26T13:48:45.320Z,17.88
2023-01-26T13:51:24.497Z,18.67
2023-01-26T13:54:01.797Z,16.23
2023-01-26T13:56:31.468Z,16.85
2023-01-26T13:59:07.648Z,15.57
2023-01-26T14:01:42.349Z,18.08
2023-01-26T14:04:14.371Z,16.10
2023-01-26T14:06:43.659Z,17.42
2023-01-26T14:09:14.325Z,14.82
2023-01-26T14:11:43.597Z,15.18
2023-01-26T14:14:21.534Z,15.07
2023-01-26T14:16:49.653Z,15.43
2023-01-26T14:19:21.038Z,16.83
2023-01-26T14:21:51.060Z,13.52
2023-01-26T14:24:21.141Z,17.05
2023-01-26T14:26:50.308Z,16.52
2023-01-26T14:29:21.905Z,14.65
2023-01-26T14:31:50.366Z,17.80
2023-01-26T14:34:22.424Z,17.55
2023-01-26T14:36:50.989Z,14.60
2023-01-26T14:39:20.331Z,16.02
2023-01-26T14:41:50.300Z,17.60
2023-01-26T14:44:19.022Z,17.08
2023-01-26T14:46:58.956Z,18.15
2023-01-26T14:49:33.689Z,14.30
2023-01-26T14:52:02.949Z,16.50
2023-01-26T14:54:34.496Z,16.80
2023-01-26T14:57:03.191Z,15.75
2023-01-26T14:59:34.016Z,16.65
2023-01-26T15:02:08.502Z,14.05
2023-01-26T15:04:39.750Z,17.05
2023-01-26T15:07:26.521Z,15.27
2023-01-26T15:09:55.254Z,18.48
2023-01-26T15:12:24.038Z,15.98
2023-01-26T15:14:53.441Z,18.67
2023-01-26T15:17:32.337Z,14.38
2023-01-26T15:20:02.506Z,17.42
2023-01-26T15:22:32.535Z,15.45
2023-01-26T15:25:02.251Z,15.63
2023-01-26T15:27:35.141Z,16.08
2023-01-26T15:30:04.541Z,13.32
2023-01-26T15:32:34.546Z,16.08
2023-01-26T15:35:08.727Z,15.88
2023-01-26T15:37:37.561Z,18.73
2023-01-26T15:40:07.880Z,17.85
2023-01-26T15:42:36.338Z,18.27
2023-01-26T15:45:04.796Z,17.00
2023-01-26T15:47:33.672Z,16.33
2023-01-26T15:50:02.868Z,16.05
2023-01-26T15:52:33.566Z,15.50
2023-01-26T15:55:02.206Z,13.48
2023-01-26T15:57:31.752Z,17.77
2023-01-26T16:00:02.906Z,17.05
2023-01-26T16:02:32.843Z,17.35
2023-01-26T16:05:01.378Z,17.42
2023-01-26T16:07:29.739Z,15.18
2023-01-26T16:10:01.260Z,17.00
2023-01-26T16:12:32.062Z,17.30
2023-01-26T16:15:01.185Z,17.48
2023-01-26T16:17:29.708Z,20.45
2023-01-26T16:20:00.395Z,19.83
2023-01-26T16:22:28.732Z,17.92
2023-01-26T16:24:57.395Z,19.42
2023-01-26T16:27:27.430Z,18.30
2023-01-26T16:29:56.293Z,17.60
2023-01-26T16:32:29.008Z,14.63
2023-01-26T16:35:00.859Z,17.42
2023-01-26T16:37:29.776Z,19.05
2023-01-26T16:39:58.415Z,19.10
2023-01-26T16:42:28.941Z,17.50
2023-01-26T16:44:57.592Z,17.20
2023-01-26T16:47:29.374Z,15.63
2023-01-26T16:49:58.221Z,17.40
2023-01-26T16:52:27.037Z,17.35
2023-01-26T16:54:56.027Z,16.30
2023-01-26T16:57:24.581Z,16.30
2023-01-26T16:59:54.310Z,14.52
2023-01-26T17:02:25.031Z,14.55
2023-01-26T17:04:53.334Z,16.95
2023-01-26T17:07:22.350Z,15.18
2023-01-26T17:09:51.749Z,17.45
2023-01-26T17:12:20.163Z,17.02
2023-01-26T17:14:48.614Z,15.25
2023-01-26T17:17:18.854Z,18.08
2023-01-26T17:19:47.461Z,17.23
2023-01-26T17:22:16.503Z,14.27
2023-01-26T17:24:45.154Z,19.45
2023-01-26T17:27:20.203Z,19.95
2023-01-26T17:29:49.414Z,53.65
2023-01-26T17:32:25.359Z,48.88
2023-01-26T17:34:54.723Z,31.93
2023-01-26T17:37:23.362Z,23.15
2023-01-26T17:39:52.432Z,24.60
2023-01-26T17:42:21.031Z,24.77
2023-01-26T17:44:49.808Z,21.02
2023-01-26T17:47:20.069Z,15.75
2023-01-26T17:49:48.581Z,14.77
2023-01-26T17:52:17.239Z,18.40
2023-01-26T17:54:45.510Z,19.08
2023-01-26T17:57:15.264Z,21.73
2023-01-26T17:59:44.890Z,20.10
2023-01-26T18:02:13.671Z,17.75
2023-01-26T18:04:44.523Z,21.48
2023-01-26T18:07:13.292Z,23.10
2023-01-26T18:09:41.743Z,26.33
2023-01-26T18:12:10.509Z,26.67
2023-01-26T18:14:39.074Z,23.88
2023-01-26T18:17:07.472Z,22.83
2023-01-26T18:19:36.354Z,24.90
2023-01-26T18:22:06.500Z,22.08
2023-01-26T18:24:35.747Z,27.70
2023-01-26T18:27:04.508Z,20.73
2023-01-26T18:29:33.548Z,22.67
2023-01-26T18:32:02.396Z,20.75
2023-01-26T18:34:32.533Z,27.23
2023-01-26T18:37:01.400Z,25.42
2023-01-26T18:39:31.469Z,24.73
2023-01-26T18:42:00.588Z,29.35
2023-01-26T18:44:29.030Z,26.20
2023-01-26T18:46:58.014Z,35.28
2023-01-26T18:49:27.087Z,29.00
2023-01-26T18:51:55.664Z,30.48
2023-01-26T18:54:26.350Z,30.00
2023-01-26T18:56:57.033Z,27.58
2023-01-26T18:59:26.906Z,27.38
2023-01-26T19:01:55.535Z,30.25
2023-01-26T19:04:24.444Z,35.53
2023-01-26T19:06:53.570Z,31.15
2023-01-26T19:09:22.046Z,31.73
2023-01-26T19:11:51.349Z,27.95
2023-01-26T19:14:21.273Z,33.88
2023-01-26T19:16:50.424Z,29.30
2023-01-26T19:19:19.164Z,29.02
2023-01-26T19:21:48.402Z,28.92
2023-01-26T19:24:16.800Z,34.40
2023-01-26T19:26:45.665Z,34.38
2023-01-26T19:29:14.522Z,31.95
2023-01-26T19:31:44.526Z,30.90
2023-01-26T19:34:14.166Z,40.30
2023-01-26T19:36:42.833Z,33.95
2023-01-26T19:39:13.767Z,38.03
2023-01-26T19:41:44.402Z,35.78
2023-01-26T19:44:13.337Z,36.67
2023-01-26T19:46:41.786Z,32.33
2023-01-26T19:49:13.608Z,31.83
2023-01-26T19:51:42.570Z,34.03
2023-01-26T19:54:11.863Z,29.10
2023-01-26T19:56:40.997Z,34.95
2023-01-26T19:59:11.184Z,41.42
2023-01-26T20:01:40.837Z,30.00
2023-01-26T20:04:11.061Z,37.65
2023-01-26T20:06:42.593Z,37.38
2023-01-26T20:09:11.767Z,36.85
2023-01-26T20:11:40.787Z,37.95
2023-01-26T20:14:09.751Z,38.85
2023-01-26T20:16:39.780Z,39.85
2023-01-26T20:19:08.472Z,40.47
2023-01-26T20:21:38.905Z,41.10
2023-01-26T20:24:11.726Z,56.00
2023-01-26T20:26:41.976Z,53.10
2023-01-26T20:29:13.196Z,50.03
2023-01-26T20:31:42.166Z,39.90
2023-01-26T20:34:11.029Z,36.65
2023-01-26T20:36:40.564Z,32.95
2023-01-26T20:39:12.847Z,32.78
2023-01-26T20:41:41.608Z,33.83
2023-01-26T20:44:10.476Z,34.47
2023-01-26T20:46:40.563Z,31.08
2023-01-26T20:49:09.849Z,38.92
2023-01-26T20:51:39.582Z,38.95
2023-01-26T20:54:08.757Z,42.85
2023-01-26T20:56:38.880Z,41.42
2023-01-26T20:59:08.186Z,39.95
2023-01-26T21:01:37.061Z,34.97
2023-01-26T21:04:06.540Z,33.83
2023-01-26T21:06:35.313Z,31.92
2023-01-26T21:09:04.075Z,39.67
2023-01-26T21:11:33.213Z,39.33
2023-01-26T21:14:03.643Z,43.17
2023-01-26T21:16:33.160Z,47.30
2023-01-26T21:19:01.720Z,63.70
2023-01-26T21:21:30.503Z,62.72
2023-01-26T21:23:59.457Z,53.47
2023-01-26T21:26:28.921Z,56.08
2023-01-26T21:28:58.481Z,48.35
2023-01-26T21:31:29.891Z,40.38
2023-01-26T21:33:58.769Z,47.15
2023-01-26T21:36:27.910Z,45.60
2023-01-26T21:38:57.524Z,37.38
2023-01-26T21:41:44.269Z,42.67
2023-01-26T21:44:13.952Z,43.05
2023-01-26T21:46:45.687Z,41.72
2023-01-26T21:49:14.431Z,39.72
2023-01-26T21:52:01.334Z,38.97
2023-01-26T21:54:30.140Z,36.53
2023-01-26T21:56:59.014Z,39.33
2023-01-26T21:59:26.648Z,32.10
2023-01-26T22:01:58.200Z,33.33
2023-01-26T22:04:28.074Z,40.17
2023-01-26T22:06:56.800Z,39.63
2023-01-26T22:09:25.479Z,40.63
2023-01-26T22:11:53.639Z,36.70
2023-01-26T22:14:22.913Z,42.20
2023-01-26T22:16:51.414Z,36.92
2023-01-26T22:19:21.541Z,35.00
2023-01-26T22:21:50.806Z,36.03
2023-01-26T22:24:19.260Z,37.45
2023-01-26T22:26:48.335Z,35.08
2023-01-26T22:29:16.905Z,32.55
2023-01-26T22:31:45.304Z,33.35
2023-01-26T22:34:13.926Z,35.47
2023-01-26T22:36:44.080Z,42.50
2023-01-26T22:39:13.327Z,36.15
2023-01-26T22:41:41.858Z,33.25
2023-01-26T22:44:10.952Z,35.83
2023-01-26T22:46:39.307Z,35.50
2023-01-26T22:49:07.874Z,35.00
2023-01-26T22:51:37.705Z,31.65
2023-01-26T22:54:07.708Z,30.75
2023-01-26T22:56:36.875Z,37.42
2023-01-26T22:59:07.242Z,36.13
2023-01-26T23:01:35.408Z,35.78
2023-01-26T23:04:04.011Z,28.90
2023-01-26T23:06:32.721Z,31.77
2023-01-26T23:09:04.723Z,29.88
2023-01-26T23:11:35.066Z,31.48
2023-01-26T23:14:03.454Z,32.17
2023-01-26T23:16:31.925Z,34.22
2023-01-26T23:19:02.768Z,39.85
2023-01-26T23:21:31.102Z,34.60
2023-01-26T23:23:59.727Z,41.45
2023-01-26T23:26:28.060Z,48.40
2023-01-26T23:28:57.981Z,34.92
2023-01-26T23:31:26.662Z,33.08
2023-01-26T23:33:55.259Z,29.38
2023-01-26T23:36:23.893Z,30.15
2023-01-26T23:38:52.713Z,34.47
2023-01-26T23:41:21.141Z,32.53
2023-01-26T23:43:49.727Z,26.42
2023-01-26T23:46:20.088Z,31.23
2023-01-26T23:48:48.425Z,28.63
2023-01-26T23:51:17.171Z,30.02
2023-01-26T23:53:46.760Z,30.10
2023-01-26T23:56:16.125Z,31.20
2023-01-26T23:58:45.825Z,29.90
